sensor_id;sensor_type;location;lat;lon;timestamp;P1;durP1;ratioP1;P2;durP2;ratioP2
66272;SDS011;58450;52.150;4.466;2023-07-31T00:01:00;22.38;;;6.18;;
66272;SDS011;58450;52.150;4.466;2023-07-31T00:03:29;23.10;;;6.82;;
66272;SDS011;58450;52.150;4.466;2023-07-31T00:05:56;24.63;;;6.95;;
66272;SDS011;58450;52.150;4.466;2023-07-31T00:08:24;20.98;;;5.80;;
66272;SDS011;58450;52.150;4.466;2023-07-31T00:10:52;20.52;;;6.00;;
66272;SDS011;58450;52.150;4.466;2023-07-31T00:13:20;18.10;;;5.50;;
66272;SDS011;58450;52.150;4.466;2023-07-31T00:15:47;17.52;;;5.30;;
66272;SDS011;58450;52.150;4.466;2023-07-31T00:18:15;19.65;;;5.60;;
66272;SDS011;58450;52.150;4.466;2023-07-31T00:20:44;19.52;;;5.25;;
66272;SDS011;58450;52.150;4.466;2023-07-31T00:23:11;16.98;;;4.60;;
66272;SDS011;58450;52.150;4.466;2023-07-31T00:25:39;14.55;;;4.13;;
66272;SDS011;58450;52.150;4.466;2023-07-31T00:28:07;12.55;;;4.43;;
66272;SDS011;58450;52.150;4.466;2023-07-31T00:30:34;13.57;;;4.20;;
66272;SDS011;58450;52.150;4.466;2023-07-31T00:33:02;18.23;;;5.05;;
66272;SDS011;58450;52.150;4.466;2023-07-31T00:35:30;20.20;;;5.30;;
66272;SDS011;58450;52.150;4.466;2023-07-31T00:37:59;22.95;;;6.60;;
66272;SDS011;58450;52.150;4.466;2023-07-31T00:40:27;23.27;;;6.20;;
66272;SDS011;58450;52.150;4.466;2023-07-31T00:42:55;25.48;;;7.05;;
66272;SDS011;58450;52.150;4.466;2023-07-31T00:45:23;24.70;;;6.90;;
66272;SDS011;58450;52.150;4.466;2023-07-31T00:47:52;29.23;;;8.02;;
66272;SDS011;58450;52.150;4.466;2023-07-31T00:50:21;26.45;;;7.28;;
66272;SDS011;58450;52.150;4.466;2023-07-31T00:52:50;25.08;;;7.55;;
66272;SDS011;58450;52.150;4.466;2023-07-31T00:55:20;33.72;;;7.55;;
66272;SDS011;58450;52.150;4.466;2023-07-31T00:57:48;20.60;;;6.72;;
66272;SDS011;58450;52.150;4.466;2023-07-31T01:00:17;31.05;;;7.53;;
66272;SDS011;58450;52.150;4.466;2023-07-31T01:02:45;23.38;;;7.20;;
66272;SDS011;58450;52.150;4.466;2023-07-31T01:05:13;27.73;;;6.90;;
66272;SDS011;58450;52.150;4.466;2023-07-31T01:07:43;22.80;;;7.13;;
66272;SDS011;58450;52.150;4.466;2023-07-31T01:10:26;23.90;;;7.50;;
66272;SDS011;58450;52.150;4.466;2023-07-31T01:13:04;23.75;;;6.90;;
66272;SDS011;58450;52.150;4.466;2023-07-31T01:15:33;22.10;;;6.25;;
66272;SDS011;58450;52.150;4.466;2023-07-31T01:18:01;30.17;;;7.95;;
66272;SDS011;58450;52.150;4.466;2023-07-31T01:20:28;24.17;;;7.75;;
66272;SDS011;58450;52.150;4.466;2023-07-31T01:23:11;28.10;;;7.05;;
66272;SDS011;58450;52.150;4.466;2023-07-31T01:26:15;30.05;;;7.13;;
66272;SDS011;58450;52.150;4.466;2023-07-31T01:28:50;23.00;;;7.22;;
66272;SDS011;58450;52.150;4.466;2023-07-31T01:31:23;24.83;;;7.40;;
66272;SDS011;58450;52.150;4.466;2023-07-31T01:33:53;24.83;;;7.68;;
66272;SDS011;58450;52.150;4.466;2023-07-31T01:36:27;26.88;;;7.53;;
66272;SDS011;58450;52.150;4.466;2023-07-31T01:38:57;24.05;;;7.43;;
66272;SDS011;58450;52.150;4.466;2023-07-31T01:41:27;25.20;;;7.32;;
66272;SDS011;58450;52.150;4.466;2023-07-31T01:43:55;26.73;;;7.10;;
66272;SDS011;58450;52.150;4.466;2023-07-31T01:46:22;28.23;;;7.70;;
66272;SDS011;58450;52.150;4.466;2023-07-31T01:48:50;25.35;;;7.25;;
66272;SDS011;58450;52.150;4.466;2023-07-31T01:51:18;26.23;;;6.90;;
66272;SDS011;58450;52.150;4.466;2023-07-31T01:53:45;21.67;;;6.90;;
66272;SDS011;58450;52.150;4.466;2023-07-31T01:56:13;22.75;;;6.70;;
66272;SDS011;58450;52.150;4.466;2023-07-31T01:58:42;22.75;;;5.88;;
66272;SDS011;58450;52.150;4.466;2023-07-31T02:01:09;16.98;;;6.07;;
66272;SDS011;58450;52.150;4.466;2023-07-31T02:03:37;19.38;;;6.22;;
66272;SDS011;58450;52.150;4.466;2023-07-31T02:06:04;20.65;;;6.28;;
66272;SDS011;58450;52.150;4.466;2023-07-31T02:08:32;24.80;;;6.13;;
66272;SDS011;58450;52.150;4.466;2023-07-31T02:11:00;23.20;;;6.63;;
66272;SDS011;58450;52.150;4.466;2023-07-31T02:13:27;25.33;;;7.07;;
66272;SDS011;58450;52.150;4.466;2023-07-31T02:15:56;20.15;;;6.30;;
66272;SDS011;58450;52.150;4.466;2023-07-31T02:18:24;21.25;;;6.68;;
66272;SDS011;58450;52.150;4.466;2023-07-31T02:20:52;22.98;;;6.95;;
66272;SDS011;58450;52.150;4.466;2023-07-31T02:23:20;26.10;;;6.18;;
66272;SDS011;58450;52.150;4.466;2023-07-31T02:25:47;21.40;;;6.78;;
66272;SDS011;58450;52.150;4.466;2023-07-31T02:28:15;23.48;;;6.57;;
66272;SDS011;58450;52.150;4.466;2023-07-31T02:30:43;24.38;;;6.70;;
66272;SDS011;58450;52.150;4.466;2023-07-31T02:33:14;26.67;;;7.40;;
66272;SDS011;58450;52.150;4.466;2023-07-31T02:35:42;22.05;;;7.35;;
66272;SDS011;58450;52.150;4.466;2023-07-31T02:38:10;24.45;;;6.63;;
66272;SDS011;58450;52.150;4.466;2023-07-31T02:40:38;21.83;;;6.40;;
66272;SDS011;58450;52.150;4.466;2023-07-31T02:43:06;26.20;;;6.93;;
66272;SDS011;58450;52.150;4.466;2023-07-31T02:45:34;22.33;;;6.68;;
66272;SDS011;58450;52.150;4.466;2023-07-31T02:48:02;25.45;;;6.95;;
66272;SDS011;58450;52.150;4.466;2023-07-31T02:50:31;22.58;;;6.43;;
66272;SDS011;58450;52.150;4.466;2023-07-31T02:52:59;26.10;;;7.15;;
66272;SDS011;58450;52.150;4.466;2023-07-31T02:55:26;22.58;;;6.90;;
66272;SDS011;58450;52.150;4.466;2023-07-31T02:57:54;27.45;;;6.72;;
66272;SDS011;58450;52.150;4.466;2023-07-31T03:00:22;23.00;;;6.97;;
66272;SDS011;58450;52.150;4.466;2023-07-31T03:02:49;23.05;;;6.65;;
66272;SDS011;58450;52.150;4.466;2023-07-31T03:05:17;23.95;;;6.43;;
66272;SDS011;58450;52.150;4.466;2023-07-31T03:07:46;22.08;;;6.72;;
66272;SDS011;58450;52.150;4.466;2023-07-31T03:10:13;22.35;;;6.63;;
66272;SDS011;58450;52.150;4.466;2023-07-31T03:12:41;24.67;;;7.35;;
66272;SDS011;58450;52.150;4.466;2023-07-31T03:15:09;22.00;;;7.03;;
66272;SDS011;58450;52.150;4.466;2023-07-31T03:17:37;18.23;;;6.47;;
66272;SDS011;58450;52.150;4.466;2023-07-31T03:20:05;24.67;;;6.70;;
66272;SDS011;58450;52.150;4.466;2023-07-31T03:22:34;23.05;;;6.47;;
66272;SDS011;58450;52.150;4.466;2023-07-31T03:25:03;22.77;;;6.15;;
66272;SDS011;58450;52.150;4.466;2023-07-31T03:27:32;21.65;;;6.72;;
66272;SDS011;58450;52.150;4.466;2023-07-31T03:29:59;24.33;;;6.93;;
66272;SDS011;58450;52.150;4.466;2023-07-31T03:32:27;18.85;;;6.25;;
66272;SDS011;58450;52.150;4.466;2023-07-31T03:34:55;23.48;;;6.63;;
66272;SDS011;58450;52.150;4.466;2023-07-31T03:37:22;24.33;;;6.97;;
66272;SDS011;58450;52.150;4.466;2023-07-31T03:39:50;26.70;;;7.20;;
66272;SDS011;58450;52.150;4.466;2023-07-31T03:42:19;22.73;;;6.35;;
66272;SDS011;58450;52.150;4.466;2023-07-31T03:44:47;24.40;;;6.60;;
66272;SDS011;58450;52.150;4.466;2023-07-31T03:47:14;24.17;;;6.43;;
66272;SDS011;58450;52.150;4.466;2023-07-31T03:49:42;26.98;;;7.15;;
66272;SDS011;58450;52.150;4.466;2023-07-31T03:52:09;24.77;;;6.78;;
66272;SDS011;58450;52.150;4.466;2023-07-31T03:54:37;28.70;;;6.60;;
66272;SDS011;58450;52.150;4.466;2023-07-31T03:57:05;14.98;;;4.97;;
66272;SDS011;58450;52.150;4.466;2023-07-31T03:59:34;13.60;;;4.10;;
66272;SDS011;58450;52.150;4.466;2023-07-31T04:02:02;12.82;;;3.78;;
66272;SDS011;58450;52.150;4.466;2023-07-31T04:04:30;12.10;;;3.50;;
66272;SDS011;58450;52.150;4.466;2023-07-31T04:06:57;12.45;;;3.63;;
66272;SDS011;58450;52.150;4.466;2023-07-31T04:09:25;10.93;;;3.53;;
66272;SDS011;58450;52.150;4.466;2023-07-31T04:11:52;9.40;;;3.33;;
66272;SDS011;58450;52.150;4.466;2023-07-31T04:14:20;13.10;;;4.00;;
66272;SDS011;58450;52.150;4.466;2023-07-31T04:16:49;11.40;;;3.40;;
66272;SDS011;58450;52.150;4.466;2023-07-31T04:19:18;14.38;;;3.92;;
66272;SDS011;58450;52.150;4.466;2023-07-31T04:21:45;10.52;;;3.50;;
66272;SDS011;58450;52.150;4.466;2023-07-31T04:24:13;10.30;;;3.22;;
66272;SDS011;58450;52.150;4.466;2023-07-31T04:26:41;9.93;;;2.80;;
66272;SDS011;58450;52.150;4.466;2023-07-31T04:29:08;8.05;;;2.40;;
66272;SDS011;58450;52.150;4.466;2023-07-31T04:31:36;6.30;;;2.38;;
66272;SDS011;58450;52.150;4.466;2023-07-31T04:34:05;6.00;;;2.00;;
66272;SDS011;58450;52.150;4.466;2023-07-31T04:36:33;5.35;;;1.90;;
66272;SDS011;58450;52.150;4.466;2023-07-31T04:39:01;6.68;;;1.52;;
66272;SDS011;58450;52.150;4.466;2023-07-31T04:41:29;3.25;;;1.63;;
66272;SDS011;58450;52.150;4.466;2023-07-31T04:43:57;6.05;;;1.67;;
66272;SDS011;58450;52.150;4.466;2023-07-31T04:46:24;4.78;;;1.52;;
66272;SDS011;58450;52.150;4.466;2023-07-31T04:48:52;4.85;;;1.40;;
66272;SDS011;58450;52.150;4.466;2023-07-31T04:51:21;3.53;;;1.02;;
66272;SDS011;58450;52.150;4.466;2023-07-31T04:53:49;3.92;;;1.10;;
66272;SDS011;58450;52.150;4.466;2023-07-31T04:56:16;5.10;;;1.25;;
66272;SDS011;58450;52.150;4.466;2023-07-31T04:58:44;3.65;;;1.17;;
66272;SDS011;58450;52.150;4.466;2023-07-31T05:01:12;3.90;;;1.20;;
66272;SDS011;58450;52.150;4.466;2023-07-31T05:03:39;4.90;;;1.15;;
66272;SDS011;58450;52.150;4.466;2023-07-31T05:06:07;4.30;;;1.10;;
66272;SDS011;58450;52.150;4.466;2023-07-31T05:08:36;2.83;;;1.00;;
66272;SDS011;58450;52.150;4.466;2023-07-31T05:11:03;4.05;;;1.45;;
66272;SDS011;58450;52.150;4.466;2023-07-31T05:13:31;3.45;;;1.13;;
66272;SDS011;58450;52.150;4.466;2023-07-31T05:15:58;3.90;;;1.10;;
66272;SDS011;58450;52.150;4.466;2023-07-31T05:18:26;3.08;;;1.20;;
66272;SDS011;58450;52.150;4.466;2023-07-31T05:20:54;3.42;;;1.10;;
66272;SDS011;58450;52.150;4.466;2023-07-31T05:23:21;3.30;;;1.42;;
66272;SDS011;58450;52.150;4.466;2023-07-31T05:25:50;1.63;;;1.15;;
66272;SDS011;58450;52.150;4.466;2023-07-31T05:28:18;1.75;;;1.08;;
66272;SDS011;58450;52.150;4.466;2023-07-31T05:30:45;2.50;;;1.35;;
66272;SDS011;58450;52.150;4.466;2023-07-31T05:33:13;1.60;;;1.20;;
66272;SDS011;58450;52.150;4.466;2023-07-31T05:35:40;2.50;;;1.30;;
66272;SDS011;58450;52.150;4.466;2023-07-31T05:38:10;3.08;;;1.45;;
66272;SDS011;58450;52.150;4.466;2023-07-31T05:40:38;2.03;;;1.40;;
66272;SDS011;58450;52.150;4.466;2023-07-31T05:43:07;2.22;;;1.20;;
66272;SDS011;58450;52.150;4.466;2023-07-31T05:45:35;2.65;;;1.30;;
66272;SDS011;58450;52.150;4.466;2023-07-31T05:48:03;2.17;;;1.27;;
66272;SDS011;58450;52.150;4.466;2023-07-31T05:50:31;1.85;;;1.30;;
66272;SDS011;58450;52.150;4.466;2023-07-31T05:52:58;1.88;;;1.30;;
66272;SDS011;58450;52.150;4.466;2023-07-31T05:55:26;2.20;;;1.50;;
66272;SDS011;58450;52.150;4.466;2023-07-31T05:57:54;2.42;;;1.40;;
66272;SDS011;58450;52.150;4.466;2023-07-31T06:00:23;2.40;;;1.30;;
66272;SDS011;58450;52.150;4.466;2023-07-31T06:02:51;2.97;;;1.50;;
66272;SDS011;58450;52.150;4.466;2023-07-31T06:05:18;3.53;;;1.50;;
66272;SDS011;58450;52.150;4.466;2023-07-31T06:07:46;3.00;;;1.50;;
66272;SDS011;58450;52.150;4.466;2023-07-31T06:10:13;3.33;;;1.38;;
66272;SDS011;58450;52.150;4.466;2023-07-31T06:12:41;2.85;;;1.30;;
66272;SDS011;58450;52.150;4.466;2023-07-31T06:15:09;6.93;;;1.85;;
66272;SDS011;58450;52.150;4.466;2023-07-31T06:17:38;4.93;;;1.80;;
66272;SDS011;58450;52.150;4.466;2023-07-31T06:20:07;10.50;;;2.30;;
66272;SDS011;58450;52.150;4.466;2023-07-31T06:22:35;4.82;;;1.90;;
66272;SDS011;58450;52.150;4.466;2023-07-31T06:25:04;8.98;;;2.13;;
66272;SDS011;58450;52.150;4.466;2023-07-31T06:27:32;5.32;;;1.90;;
66272;SDS011;58450;52.150;4.466;2023-07-31T06:30:00;7.25;;;1.75;;
66272;SDS011;58450;52.150;4.466;2023-07-31T06:32:27;6.88;;;2.08;;
66272;SDS011;58450;52.150;4.466;2023-07-31T06:34:56;6.18;;;2.20;;
66272;SDS011;58450;52.150;4.466;2023-07-31T06:37:24;7.53;;;2.33;;
66272;SDS011;58450;52.150;4.466;2023-07-31T06:39:51;7.63;;;2.15;;
66272;SDS011;58450;52.150;4.466;2023-07-31T06:42:19;9.80;;;2.63;;
66272;SDS011;58450;52.150;4.466;2023-07-31T06:44:46;8.23;;;2.60;;
66272;SDS011;58450;52.150;4.466;2023-07-31T06:47:14;11.65;;;2.72;;
66272;SDS011;58450;52.150;4.466;2023-07-31T06:49:41;12.70;;;3.25;;
66272;SDS011;58450;52.150;4.466;2023-07-31T06:52:10;7.40;;;3.00;;
66272;SDS011;58450;52.150;4.466;2023-07-31T06:54:38;11.07;;;3.60;;
66272;SDS011;58450;52.150;4.466;2023-07-31T06:57:06;12.70;;;3.30;;
66272;SDS011;58450;52.150;4.466;2023-07-31T06:59:33;12.68;;;3.63;;
66272;SDS011;58450;52.150;4.466;2023-07-31T07:02:01;12.05;;;3.05;;
66272;SDS011;58450;52.150;4.466;2023-07-31T07:04:28;10.50;;;3.30;;
66272;SDS011;58450;52.150;4.466;2023-07-31T07:06:56;13.65;;;3.47;;
66272;SDS011;58450;52.150;4.466;2023-07-31T07:09:25;9.18;;;3.47;;
66272;SDS011;58450;52.150;4.466;2023-07-31T07:11:52;10.18;;;3.15;;
66272;SDS011;58450;52.150;4.466;2023-07-31T07:14:20;10.57;;;3.55;;
66272;SDS011;58450;52.150;4.466;2023-07-31T07:16:50;11.70;;;3.80;;
66272;SDS011;58450;52.150;4.466;2023-07-31T07:19:18;11.82;;;3.58;;
66272;SDS011;58450;52.150;4.466;2023-07-31T07:21:45;10.63;;;3.60;;
66272;SDS011;58450;52.150;4.466;2023-07-31T07:24:13;10.40;;;3.70;;
66272;SDS011;58450;52.150;4.466;2023-07-31T07:26:42;8.00;;;3.13;;
66272;SDS011;58450;52.150;4.466;2023-07-31T07:29:09;9.95;;;3.28;;
66272;SDS011;58450;52.150;4.466;2023-07-31T07:31:37;11.98;;;2.92;;
66272;SDS011;58450;52.150;4.466;2023-07-31T07:34:04;12.23;;;3.35;;
66272;SDS011;58450;52.150;4.466;2023-07-31T07:36:32;13.00;;;2.92;;
66272;SDS011;58450;52.150;4.466;2023-07-31T07:38:59;12.38;;;3.35;;
66272;SDS011;58450;52.150;4.466;2023-07-31T07:41:27;13.52;;;3.55;;
66272;SDS011;58450;52.150;4.466;2023-07-31T07:43:56;14.77;;;3.40;;
66272;SDS011;58450;52.150;4.466;2023-07-31T07:46:23;11.30;;;3.47;;
66272;SDS011;58450;52.150;4.466;2023-07-31T07:48:51;15.02;;;3.50;;
66272;SDS011;58450;52.150;4.466;2023-07-31T07:51:18;12.95;;;3.65;;
66272;SDS011;58450;52.150;4.466;2023-07-31T07:53:46;15.23;;;3.45;;
66272;SDS011;58450;52.150;4.466;2023-07-31T07:56:14;11.63;;;3.25;;
66272;SDS011;58450;52.150;4.466;2023-07-31T07:58:41;12.02;;;3.30;;
66272;SDS011;58450;52.150;4.466;2023-07-31T08:01:10;12.75;;;3.17;;
66272;SDS011;58450;52.150;4.466;2023-07-31T08:03:38;11.15;;;3.22;;
66272;SDS011;58450;52.150;4.466;2023-07-31T08:06:05;14.93;;;3.20;;
66272;SDS011;58450;52.150;4.466;2023-07-31T08:08:34;15.18;;;3.22;;
66272;SDS011;58450;52.150;4.466;2023-07-31T08:11:02;15.40;;;3.28;;
66272;SDS011;58450;52.150;4.466;2023-07-31T08:13:30;13.88;;;3.35;;
66272;SDS011;58450;52.150;4.466;2023-07-31T08:15:58;15.07;;;3.58;;
66272;SDS011;58450;52.150;4.466;2023-07-31T08:18:27;16.25;;;3.13;;
66272;SDS011;58450;52.150;4.466;2023-07-31T08:20:54;19.17;;;3.85;;
66272;SDS011;58450;52.150;4.466;2023-07-31T08:23:22;14.25;;;3.63;;
66272;SDS011;58450;52.150;4.466;2023-07-31T08:25:49;17.30;;;4.22;;
66272;SDS011;58450;52.150;4.466;2023-07-31T08:28:17;18.80;;;4.07;;
66272;SDS011;58450;52.150;4.466;2023-07-31T08:30:45;15.38;;;4.00;;
66272;SDS011;58450;52.150;4.466;2023-07-31T08:33:12;17.02;;;3.95;;
66272;SDS011;58450;52.150;4.466;2023-07-31T08:35:41;17.45;;;3.85;;
66272;SDS011;58450;52.150;4.466;2023-07-31T08:38:09;13.73;;;2.72;;
66272;SDS011;58450;52.150;4.466;2023-07-31T08:40:37;15.10;;;3.20;;
66272;SDS011;58450;52.150;4.466;2023-07-31T08:43:04;17.42;;;3.50;;
66272;SDS011;58450;52.150;4.466;2023-07-31T08:45:32;14.13;;;3.17;;
66272;SDS011;58450;52.150;4.466;2023-07-31T08:48:00;16.52;;;3.35;;
66272;SDS011;58450;52.150;4.466;2023-07-31T08:50:28;21.45;;;3.90;;
66272;SDS011;58450;52.150;4.466;2023-07-31T08:52:57;18.13;;;3.75;;
66272;SDS011;58450;52.150;4.466;2023-07-31T08:55:25;14.35;;;3.03;;
66272;SDS011;58450;52.150;4.466;2023-07-31T08:57:55;14.48;;;3.60;;
66272;SDS011;58450;52.150;4.466;2023-07-31T09:00:24;15.95;;;3.78;;
66272;SDS011;58450;52.150;4.466;2023-07-31T09:02:54;10.52;;;2.80;;
66272;SDS011;58450;52.150;4.466;2023-07-31T09:05:28;16.83;;;3.33;;
66272;SDS011;58450;52.150;4.466;2023-07-31T09:07:59;14.15;;;3.22;;
66272;SDS011;58450;52.150;4.466;2023-07-31T09:10:31;14.35;;;3.10;;
66272;SDS011;58450;52.150;4.466;2023-07-31T09:12:58;12.63;;;2.88;;
66272;SDS011;58450;52.150;4.466;2023-07-31T09:15:26;12.30;;;3.17;;
66272;SDS011;58450;52.150;4.466;2023-07-31T09:17:58;12.73;;;2.80;;
66272;SDS011;58450;52.150;4.466;2023-07-31T09:20:27;13.50;;;2.60;;
66272;SDS011;58450;52.150;4.466;2023-07-31T09:22:55;13.38;;;2.75;;
66272;SDS011;58450;52.150;4.466;2023-07-31T09:25:25;13.70;;;3.08;;
66272;SDS011;58450;52.150;4.466;2023-07-31T09:27:54;11.30;;;3.00;;
66272;SDS011;58450;52.150;4.466;2023-07-31T09:30:25;13.60;;;3.05;;
66272;SDS011;58450;52.150;4.466;2023-07-31T09:32:59;10.77;;;2.72;;
66272;SDS011;58450;52.150;4.466;2023-07-31T09:35:30;12.27;;;2.60;;
66272;SDS011;58450;52.150;4.466;2023-07-31T09:38:00;11.90;;;2.97;;
66272;SDS011;58450;52.150;4.466;2023-07-31T09:40:34;8.57;;;2.38;;
66272;SDS011;58450;52.150;4.466;2023-07-31T09:43:03;10.75;;;2.70;;
66272;SDS011;58450;52.150;4.466;2023-07-31T09:45:34;13.57;;;2.97;;
66272;SDS011;58450;52.150;4.466;2023-07-31T09:48:03;10.48;;;2.65;;
66272;SDS011;58450;52.150;4.466;2023-07-31T09:50:36;10.00;;;2.60;;
66272;SDS011;58450;52.150;4.466;2023-07-31T09:53:05;12.30;;;2.97;;
66272;SDS011;58450;52.150;4.466;2023-07-31T09:55:35;12.13;;;3.00;;
66272;SDS011;58450;52.150;4.466;2023-07-31T09:58:04;11.25;;;2.72;;
66272;SDS011;58450;52.150;4.466;2023-07-31T10:00:34;9.30;;;2.72;;
66272;SDS011;58450;52.150;4.466;2023-07-31T10:03:04;13.18;;;3.10;;
66272;SDS011;58450;52.150;4.466;2023-07-31T10:05:35;14.57;;;3.40;;
66272;SDS011;58450;52.150;4.466;2023-07-31T10:08:07;14.10;;;3.35;;
66272;SDS011;58450;52.150;4.466;2023-07-31T10:10:41;9.80;;;2.88;;
66272;SDS011;58450;52.150;4.466;2023-07-31T10:13:11;18.67;;;3.58;;
66272;SDS011;58450;52.150;4.466;2023-07-31T10:15:40;11.63;;;3.22;;
66272;SDS011;58450;52.150;4.466;2023-07-31T10:18:09;10.55;;;2.70;;
66272;SDS011;58450;52.150;4.466;2023-07-31T10:20:39;10.95;;;2.55;;
66272;SDS011;58450;52.150;4.466;2023-07-31T10:23:08;10.50;;;2.85;;
66272;SDS011;58450;52.150;4.466;2023-07-31T10:25:36;10.25;;;2.70;;
66272;SDS011;58450;52.150;4.466;2023-07-31T10:28:07;12.23;;;3.13;;
66272;SDS011;58450;52.150;4.466;2023-07-31T10:30:38;10.07;;;2.60;;
66272;SDS011;58450;52.150;4.466;2023-07-31T10:33:07;10.40;;;2.70;;
66272;SDS011;58450;52.150;4.466;2023-07-31T10:35:35;9.32;;;2.75;;
66272;SDS011;58450;52.150;4.466;2023-07-31T10:38:09;10.88;;;2.80;;
66272;SDS011;58450;52.150;4.466;2023-07-31T10:40:38;12.15;;;3.17;;
66272;SDS011;58450;52.150;4.466;2023-07-31T10:43:08;10.82;;;3.20;;
66272;SDS011;58450;52.150;4.466;2023-07-31T10:45:37;9.20;;;2.65;;
66272;SDS011;58450;52.150;4.466;2023-07-31T10:48:07;11.73;;;2.97;;
66272;SDS011;58450;52.150;4.466;2023-07-31T10:50:46;12.13;;;3.30;;
66272;SDS011;58450;52.150;4.466;2023-07-31T10:53:22;15.43;;;3.33;;
66272;SDS011;58450;52.150;4.466;2023-07-31T10:55:50;11.25;;;2.70;;
66272;SDS011;58450;52.150;4.466;2023-07-31T10:58:20;8.55;;;2.58;;
66272;SDS011;58450;52.150;4.466;2023-07-31T11:00:48;8.38;;;2.42;;
66272;SDS011;58450;52.150;4.466;2023-07-31T11:03:17;10.80;;;2.60;;
66272;SDS011;58450;52.150;4.466;2023-07-31T11:05:47;10.32;;;2.95;;
66272;SDS011;58450;52.150;4.466;2023-07-31T11:08:20;8.75;;;2.58;;
66272;SDS011;58450;52.150;4.466;2023-07-31T11:10:50;7.85;;;2.25;;
66272;SDS011;58450;52.150;4.466;2023-07-31T11:13:34;10.20;;;2.45;;
66272;SDS011;58450;52.150;4.466;2023-07-31T11:16:09;7.82;;;2.20;;
66272;SDS011;58450;52.150;4.466;2023-07-31T11:18:38;9.73;;;2.10;;
66272;SDS011;58450;52.150;4.466;2023-07-31T11:21:08;7.65;;;1.88;;
66272;SDS011;58450;52.150;4.466;2023-07-31T11:23:39;8.27;;;2.10;;
66272;SDS011;58450;52.150;4.466;2023-07-31T11:26:06;9.38;;;2.00;;
66272;SDS011;58450;52.150;4.466;2023-07-31T11:28:36;9.15;;;2.38;;
66272;SDS011;58450;52.150;4.466;2023-07-31T11:31:04;8.05;;;2.00;;
66272;SDS011;58450;52.150;4.466;2023-07-31T11:33:32;8.15;;;2.45;;
66272;SDS011;58450;52.150;4.466;2023-07-31T11:35:59;9.18;;;2.08;;
66272;SDS011;58450;52.150;4.466;2023-07-31T11:38:27;8.90;;;1.98;;
66272;SDS011;58450;52.150;4.466;2023-07-31T11:40:59;10.23;;;2.20;;
66272;SDS011;58450;52.150;4.466;2023-07-31T11:43:29;9.70;;;2.35;;
66272;SDS011;58450;52.150;4.466;2023-07-31T11:46:00;7.35;;;1.90;;
66272;SDS011;58450;52.150;4.466;2023-07-31T11:48:29;6.32;;;1.77;;
66272;SDS011;58450;52.150;4.466;2023-07-31T11:51:02;6.72;;;1.80;;
66272;SDS011;58450;52.150;4.466;2023-07-31T11:53:32;5.80;;;1.70;;
66272;SDS011;58450;52.150;4.466;2023-07-31T11:58:34;9.18;;;1.98;;
66272;SDS011;58450;52.150;4.466;2023-07-31T12:01:05;7.03;;;2.13;;
66272;SDS011;58450;52.150;4.466;2023-07-31T12:03:34;7.13;;;1.88;;
66272;SDS011;58450;52.150;4.466;2023-07-31T12:06:02;8.88;;;2.20;;
66272;SDS011;58450;52.150;4.466;2023-07-31T12:08:30;7.78;;;1.83;;
66272;SDS011;58450;52.150;4.466;2023-07-31T12:11:01;5.60;;;1.77;;
66272;SDS011;58450;52.150;4.466;2023-07-31T12:13:31;8.27;;;1.75;;
66272;SDS011;58450;52.150;4.466;2023-07-31T12:16:02;9.18;;;2.00;;
66272;SDS011;58450;52.150;4.466;2023-07-31T12:18:33;6.70;;;1.70;;
66272;SDS011;58450;52.150;4.466;2023-07-31T12:21:04;5.07;;;1.90;;
66272;SDS011;58450;52.150;4.466;2023-07-31T12:23:34;7.65;;;1.88;;
66272;SDS011;58450;52.150;4.466;2023-07-31T12:26:04;6.22;;;1.75;;
66272;SDS011;58450;52.150;4.466;2023-07-31T12:28:36;9.18;;;2.42;;
66272;SDS011;58450;52.150;4.466;2023-07-31T12:31:08;5.53;;;1.60;;
66272;SDS011;58450;52.150;4.466;2023-07-31T12:33:39;8.13;;;1.95;;
66272;SDS011;58450;52.150;4.466;2023-07-31T12:36:08;5.95;;;1.80;;
66272;SDS011;58450;52.150;4.466;2023-07-31T12:38:38;6.35;;;2.00;;
66272;SDS011;58450;52.150;4.466;2023-07-31T12:41:06;5.35;;;1.77;;
66272;SDS011;58450;52.150;4.466;2023-07-31T12:43:33;6.60;;;1.85;;
66272;SDS011;58450;52.150;4.466;2023-07-31T12:46:01;4.85;;;1.42;;
66272;SDS011;58450;52.150;4.466;2023-07-31T12:48:31;6.22;;;1.73;;
66272;SDS011;58450;52.150;4.466;2023-07-31T12:50:59;6.85;;;1.77;;
66272;SDS011;58450;52.150;4.466;2023-07-31T12:53:26;6.25;;;1.80;;
66272;SDS011;58450;52.150;4.466;2023-07-31T12:55:54;9.77;;;2.17;;
66272;SDS011;58450;52.150;4.466;2023-07-31T12:58:22;6.90;;;1.55;;
66272;SDS011;58450;52.150;4.466;2023-07-31T13:00:50;3.15;;;1.20;;
66272;SDS011;58450;52.150;4.466;2023-07-31T13:03:18;4.65;;;1.40;;
66272;SDS011;58450;52.150;4.466;2023-07-31T13:05:47;6.20;;;1.38;;
66272;SDS011;58450;52.150;4.466;2023-07-31T13:08:15;4.32;;;1.20;;
66272;SDS011;58450;52.150;4.466;2023-07-31T13:10:43;7.95;;;1.40;;
66272;SDS011;58450;52.150;4.466;2023-07-31T13:13:11;3.05;;;0.90;;
66272;SDS011;58450;52.150;4.466;2023-07-31T13:15:38;2.83;;;0.80;;
66272;SDS011;58450;52.150;4.466;2023-07-31T13:18:06;2.60;;;0.80;;
66272;SDS011;58450;52.150;4.466;2023-07-31T13:20:34;3.22;;;0.90;;
66272;SDS011;58450;52.150;4.466;2023-07-31T13:23:03;5.03;;;1.10;;
66272;SDS011;58450;52.150;4.466;2023-07-31T13:25:30;3.25;;;1.10;;
66272;SDS011;58450;52.150;4.466;2023-07-31T13:27:58;1.92;;;0.80;;
66272;SDS011;58450;52.150;4.466;2023-07-31T13:30:25;3.67;;;1.40;;
66272;SDS011;58450;52.150;4.466;2023-07-31T13:32:53;6.03;;;1.70;;
66272;SDS011;58450;52.150;4.466;2023-07-31T13:35:20;6.50;;;2.10;;
66272;SDS011;58450;52.150;4.466;2023-07-31T13:37:48;7.57;;;2.20;;
66272;SDS011;58450;52.150;4.466;2023-07-31T13:40:17;6.45;;;2.03;;
66272;SDS011;58450;52.150;4.466;2023-07-31T13:42:45;9.07;;;2.50;;
66272;SDS011;58450;52.150;4.466;2023-07-31T13:45:13;7.93;;;2.50;;
66272;SDS011;58450;52.150;4.466;2023-07-31T13:47:41;9.25;;;2.47;;
66272;SDS011;58450;52.150;4.466;2023-07-31T13:50:09;5.75;;;2.25;;
66272;SDS011;58450;52.150;4.466;2023-07-31T13:52:36;9.90;;;2.10;;
66272;SDS011;58450;52.150;4.466;2023-07-31T13:55:04;6.88;;;2.30;;
66272;SDS011;58450;52.150;4.466;2023-07-31T13:57:34;4.88;;;1.60;;
66272;SDS011;58450;52.150;4.466;2023-07-31T14:00:02;6.72;;;1.83;;
66272;SDS011;58450;52.150;4.466;2023-07-31T14:02:31;8.60;;;2.53;;
66272;SDS011;58450;52.150;4.466;2023-07-31T14:04:58;7.85;;;1.83;;
66272;SDS011;58450;52.150;4.466;2023-07-31T14:07:26;8.05;;;2.08;;
66272;SDS011;58450;52.150;4.466;2023-07-31T14:09:53;5.97;;;1.73;;
66272;SDS011;58450;52.150;4.466;2023-07-31T14:12:21;7.78;;;1.85;;
66272;SDS011;58450;52.150;4.466;2023-07-31T14:14:50;8.95;;;1.90;;
66272;SDS011;58450;52.150;4.466;2023-07-31T14:17:17;8.45;;;1.70;;
66272;SDS011;58450;52.150;4.466;2023-07-31T14:19:45;7.00;;;1.90;;
66272;SDS011;58450;52.150;4.466;2023-07-31T14:22:12;5.40;;;1.40;;
66272;SDS011;58450;52.150;4.466;2023-07-31T14:24:40;7.03;;;1.40;;
66272;SDS011;58450;52.150;4.466;2023-07-31T14:27:08;6.97;;;1.50;;
66272;SDS011;58450;52.150;4.466;2023-07-31T14:29:35;4.22;;;1.30;;
66272;SDS011;58450;52.150;4.466;2023-07-31T14:32:05;4.65;;;1.38;;
66272;SDS011;58450;52.150;4.466;2023-07-31T14:34:33;6.88;;;1.08;;
66272;SDS011;58450;52.150;4.466;2023-07-31T14:37:01;5.88;;;1.17;;
66272;SDS011;58450;52.150;4.466;2023-07-31T14:39:28;3.75;;;0.93;;
66272;SDS011;58450;52.150;4.466;2023-07-31T14:41:56;3.45;;;0.98;;
66272;SDS011;58450;52.150;4.466;2023-07-31T14:44:23;3.10;;;1.10;;
66272;SDS011;58450;52.150;4.466;2023-07-31T14:46:51;4.22;;;1.00;;
66272;SDS011;58450;52.150;4.466;2023-07-31T14:49:20;3.85;;;1.10;;
66272;SDS011;58450;52.150;4.466;2023-07-31T14:51:47;3.28;;;0.93;;